createdAt,value
2023-02-06T00:03:20.765Z,8.02
2023-02-06T00:07:22.328Z,8.93
2023-02-06T00:11:24.294Z,8.20
2023-02-06T00:15:25.861Z,8.32
2023-02-06T00:19:27.408Z,8.35
2023-02-06T00:23:28.995Z,7.63
2023-02-06T00:27:30.577Z,8.00
2023-02-06T00:31:33.750Z,8.20
2023-02-06T00:35:35.592Z,8.38
2023-02-06T00:39:37.532Z,7.07
2023-02-06T00:43:39.163Z,8.48
2023-02-06T00:47:40.737Z,7.43
2023-02-06T00:51:44.287Z,8.38
2023-02-06T00:55:45.834Z,9.10
2023-02-06T00:59:47.395Z,8.40
2023-02-06T01:03:48.987Z,9.27
2023-02-06T01:07:51.101Z,8.00
2023-02-06T01:11:53.042Z,8.30
2023-02-06T01:15:59.215Z,8.43
2023-02-06T01:20:01.137Z,8.75
2023-02-06T01:24:03.747Z,8.60
2023-02-06T01:28:05.377Z,7.55
2023-02-06T01:32:06.968Z,8.80
2023-02-06T01:36:08.637Z,7.38
2023-02-06T01:40:15.052Z,7.57
2023-02-06T01:44:22.546Z,7.70
2023-02-06T01:48:33.364Z,8.07
2023-02-06T01:52:35.158Z,8.20
2023-02-06T01:56:41.745Z,8.17
2023-02-06T02:00:44.314Z,8.23
2023-02-06T02:04:46.175Z,9.52
2023-02-06T02:13:58.871Z,8.65
2023-02-06T02:18:13.016Z,8.38
2023-02-06T02:26:56.657Z,8.18
2023-02-06T02:31:14.892Z,8.07
2023-02-06T02:35:40.839Z,8.10
2023-02-06T02:40:03.281Z,8.40
2023-02-06T02:44:11.321Z,8.35
2023-02-06T02:48:25.339Z,7.72
2023-02-06T02:52:26.927Z,9.30
2023-02-06T02:56:31.178Z,9.10
2023-02-06T03:00:37.241Z,6.97
2023-02-06T03:04:44.919Z,7.70
2023-02-06T03:09:03.026Z,6.53
2023-02-06T03:13:22.739Z,6.55
2023-02-06T03:17:34.857Z,7.05
2023-02-06T03:25:44.197Z,5.72
2023-02-06T03:29:49.049Z,6.32
2023-02-06T03:33:58.033Z,6.68
2023-02-06T03:37:59.888Z,5.75
2023-02-06T03:42:03.302Z,5.47
2023-02-06T03:46:06.445Z,5.80
2023-02-06T03:50:10.779Z,6.72
2023-02-06T03:54:16.430Z,6.95
2023-02-06T03:58:18.133Z,6.30
2023-02-06T04:02:22.118Z,5.97
2023-02-06T04:06:23.942Z,6.72
2023-02-06T04:10:26.503Z,5.95
2023-02-06T04:14:28.119Z,5.72
2023-02-06T04:18:29.753Z,6.20
2023-02-06T04:22:31.437Z,6.07
2023-02-06T04:26:32.982Z,6.28
2023-02-06T04:30:34.631Z,6.50
2023-02-06T04:34:37.064Z,6.75
2023-02-06T04:38:38.666Z,6.88
2023-02-06T04:42:40.182Z,7.65
2023-02-06T04:46:43.349Z,6.53
2023-02-06T04:50:44.880Z,6.97
2023-02-06T04:54:46.413Z,6.32
2023-02-06T04:58:48.058Z,6.18
2023-02-06T05:02:49.682Z,6.78
2023-02-06T05:06:51.345Z,6.75
2023-02-06T05:10:52.952Z,6.57
2023-02-06T05:14:55.356Z,7.63
2023-02-06T05:18:57.248Z,6.82
2023-02-06T05:22:58.875Z,7.23
2023-02-06T05:27:00.431Z,6.70
2023-02-06T05:31:03.184Z,7.05
2023-02-06T05:35:04.968Z,7.20
2023-02-06T05:39:06.541Z,7.07
2023-02-06T05:43:11.097Z,6.32
2023-02-06T05:47:12.709Z,6.80
2023-02-06T05:51:14.442Z,5.43
2023-02-06T05:55:18.357Z,6.00
2023-02-06T05:59:20.498Z,5.53
2023-02-06T06:03:27.362Z,6.67
2023-02-06T06:07:29.010Z,6.43
2023-02-06T06:11:31.157Z,7.13
2023-02-06T06:15:32.740Z,7.33
2023-02-06T06:19:34.370Z,6.70
2023-02-06T06:23:35.970Z,7.00
2023-02-06T06:27:37.538Z,6.50
2023-02-06T06:31:39.107Z,7.15
2023-02-06T06:35:40.763Z,6.72
2023-02-06T06:39:42.523Z,6.70
2023-02-06T06:43:44.123Z,7.20
2023-02-06T06:47:45.724Z,6.43
2023-02-06T06:51:47.301Z,6.30
2023-02-06T06:55:48.952Z,6.10
2023-02-06T06:59:50.827Z,6.68
2023-02-06T07:03:52.373Z,5.68
2023-02-06T07:07:54.005Z,6.72
2023-02-06T07:11:55.561Z,6.85
2023-02-06T07:15:57.139Z,7.15
2023-02-06T07:19:59.438Z,6.88
2023-02-06T07:24:04.625Z,8.00
2023-02-06T07:28:06.333Z,7.38
2023-02-06T07:32:08.063Z,7.18
2023-02-06T07:36:11.819Z,10.63
2023-02-06T07:40:13.487Z,8.93
2023-02-06T07:44:15.770Z,8.98
2023-02-06T07:48:17.408Z,8.70
2023-02-06T07:52:20.286Z,8.63
2023-02-06T08:04:35.140Z,6.72
2023-02-06T08:08:37.043Z,7.65
2023-02-06T08:12:38.607Z,7.88
2023-02-06T08:16:40.377Z,8.02
2023-02-06T08:20:42.647Z,7.38
2023-02-06T08:24:44.404Z,8.43
2023-02-06T08:28:47.806Z,7.70
2023-02-06T08:32:49.470Z,8.27
2023-02-06T08:36:51.027Z,8.05
2023-02-06T08:40:52.539Z,8.43
2023-02-06T08:44:54.361Z,7.40
2023-02-06T08:48:57.683Z,7.50
2023-02-06T08:53:00.115Z,7.80
2023-02-06T08:57:02.641Z,11.15
2023-02-06T09:01:08.822Z,8.02
2023-02-06T09:05:10.459Z,7.53
2023-02-06T09:09:12.803Z,7.38
2023-02-06T09:13:14.444Z,14.38
2023-02-06T09:17:16.639Z,13.10
2023-02-06T09:21:21.114Z,13.95
2023-02-06T09:25:22.712Z,11.63
2023-02-06T09:29:24.552Z,8.85
2023-02-06T09:33:26.182Z,7.47
2023-02-06T09:37:27.805Z,6.93
2023-02-06T09:41:41.632Z,8.57
2023-02-06T09:45:43.176Z,11.57
2023-02-06T09:49:49.082Z,11.25
2023-02-06T09:54:14.616Z,9.75
2023-02-06T09:58:51.074Z,6.55
2023-02-06T10:02:58.191Z,6.10
2023-02-06T10:07:20.692Z,6.38
2023-02-06T10:11:29.604Z,5.57
2023-02-06T10:15:36.126Z,7.40
2023-02-06T10:19:56.742Z,5.30
2023-02-06T10:24:08.549Z,6.35
2023-02-06T10:28:24.499Z,5.05
2023-02-06T10:32:44.736Z,6.22
2023-02-06T10:37:15.440Z,5.05
2023-02-06T10:41:39.845Z,3.55
2023-02-06T10:46:00.353Z,4.80
2023-02-06T10:50:37.493Z,4.65
2023-02-06T10:54:47.236Z,4.35
2023-02-06T10:58:54.586Z,3.78
2023-02-06T11:03:07.411Z,3.25
2023-02-06T11:07:17.600Z,4.45
2023-02-06T11:11:24.579Z,3.08
2023-02-06T11:15:44.592Z,3.00
2023-02-06T11:19:50.910Z,3.08
2023-02-06T11:24:09.461Z,3.05
2023-02-06T11:28:14.960Z,3.50
2023-02-06T11:32:25.780Z,2.65
2023-02-06T11:36:31.686Z,3.10
2023-02-06T11:40:33.417Z,2.95
2023-02-06T11:44:38.573Z,5.00
2023-02-06T11:48:46.530Z,3.65
2023-02-06T11:52:48.774Z,2.90
2023-02-06T11:57:20.133Z,3.10
2023-02-06T12:01:22.693Z,2.67
2023-02-06T12:05:28.130Z,2.60
2023-02-06T12:09:30.120Z,2.53
2023-02-06T12:13:41.994Z,2.97
2023-02-06T12:17:55.571Z,3.03
2023-02-06T12:22:12.851Z,2.33
2023-02-06T12:26:18.591Z,5.63
2023-02-06T12:30:35.775Z,3.45
2023-02-06T12:34:44.691Z,3.30
2023-02-06T12:38:57.495Z,4.45
2023-02-06T12:43:13.751Z,3.90
2023-02-06T12:47:35.233Z,3.55
2023-02-06T12:51:41.359Z,3.40
2023-02-06T12:56:01.706Z,3.30
2023-02-06T13:00:12.833Z,2.83
2023-02-06T13:04:23.662Z,2.40
2023-02-06T13:08:48.681Z,2.70
2023-02-06T13:12:56.101Z,2.70
2023-02-06T13:17:16.777Z,2.58
2023-02-06T13:21:26.513Z,2.40
2023-02-06T13:25:46.517Z,2.03
2023-02-06T13:29:54.087Z,2.20
2023-02-06T13:34:06.180Z,2.15
2023-02-06T13:38:58.692Z,2.33
2023-02-06T13:43:26.902Z,2.88
2023-02-06T13:47:53.150Z,2.38
2023-02-06T13:52:38.170Z,2.00
2023-02-06T13:57:29.592Z,2.20
2023-02-06T14:01:49.299Z,2.30
2023-02-06T14:06:29.197Z,2.05
2023-02-06T14:11:27.098Z,1.58
2023-02-06T14:15:52.082Z,2.25
2023-02-06T14:19:58.471Z,2.72
2023-02-06T14:24:07.505Z,2.72
2023-02-06T14:28:27.236Z,2.30
2023-02-06T14:32:28.922Z,1.88
2023-02-06T14:37:00.263Z,1.83
2023-02-06T14:41:04.123Z,1.73
2023-02-06T14:45:28.472Z,2.03
2023-02-06T14:49:35.098Z,1.38
2023-02-06T14:53:39.349Z,2.05
2023-02-06T14:57:44.959Z,1.90
2023-02-06T15:01:50.103Z,1.65
2023-02-06T15:06:01.884Z,2.00
2023-02-06T15:10:14.075Z,1.60
2023-02-06T15:14:25.898Z,1.53
2023-02-06T15:18:27.458Z,1.73
2023-02-06T15:22:30.765Z,1.52
2023-02-06T15:26:46.150Z,1.50
2023-02-06T15:30:54.167Z,1.90
2023-02-06T15:34:56.481Z,1.63
2023-02-06T15:39:05.470Z,1.83
2023-02-06T15:43:22.145Z,1.52
2023-02-06T15:47:25.079Z,1.30
2023-02-06T15:55:36.790Z,1.10
2023-02-06T15:59:40.735Z,1.23
2023-02-06T16:03:42.626Z,1.60
2023-02-06T16:07:48.265Z,1.60
2023-02-06T16:11:53.150Z,2.97
2023-02-06T16:16:16.829Z,1.63
2023-02-06T16:20:40.989Z,1.60
2023-02-06T16:24:43.026Z,1.50
2023-02-06T16:29:05.035Z,1.40
2023-02-06T16:33:25.581Z,2.05
2023-02-06T16:37:30.167Z,1.63
2023-02-06T16:41:34.709Z,1.88
2023-02-06T16:45:36.642Z,6.97
2023-02-06T16:49:38.446Z,2.80
2023-02-06T16:53:39.992Z,4.88
2023-02-06T16:57:44.938Z,3.50
2023-02-06T17:01:47.440Z,43.33
2023-02-06T17:05:50.296Z,19.30
2023-02-06T17:09:54.480Z,5.57
2023-02-06T17:13:56.369Z,3.45
2023-02-06T17:17:58.372Z,4.72
2023-02-06T17:22:01.383Z,2.37
2023-02-06T17:26:03.552Z,1.67
2023-02-06T17:30:05.510Z,1.97
2023-02-06T17:34:07.169Z,2.45
2023-02-06T17:38:09.966Z,2.10
2023-02-06T17:42:11.540Z,2.28
2023-02-06T17:46:13.226Z,1.67
2023-02-06T17:50:20.696Z,5.13
2023-02-06T17:54:22.627Z,2.60
2023-02-06T17:58:24.258Z,2.08
2023-02-06T18:02:25.849Z,2.80
2023-02-06T18:06:32.333Z,2.53
2023-02-06T18:10:33.963Z,2.60
2023-02-06T18:14:35.880Z,2.03
2023-02-06T18:18:37.453Z,1.75
2023-02-06T18:22:42.196Z,1.70
2023-02-06T18:26:43.743Z,1.45
2023-02-06T18:30:45.564Z,1.90
2023-02-06T18:34:48.073Z,1.63
2023-02-06T18:38:50.080Z,1.50
2023-02-06T18:42:51.788Z,2.10
2023-02-06T18:46:53.654Z,1.50
2023-02-06T18:50:57.510Z,1.80
2023-02-06T18:55:00.044Z,5.95
2023-02-06T18:59:01.669Z,2.45
2023-02-06T19:03:04.527Z,1.98
2023-02-06T19:11:08.610Z,3.15
2023-02-06T19:15:11.209Z,1.58
2023-02-06T19:19:13.237Z,1.70
2023-02-06T19:23:14.977Z,1.13
2023-02-06T19:27:16.685Z,1.48
2023-02-06T19:31:24.007Z,1.75
2023-02-06T19:35:25.652Z,1.90
2023-02-06T19:39:27.430Z,2.33
2023-02-06T19:43:29.009Z,1.85
2023-02-06T19:47:30.598Z,1.77
2023-02-06T19:51:35.891Z,3.83
2023-02-06T19:55:37.639Z,3.22
2023-02-06T19:59:39.289Z,2.60
2023-02-06T20:03:41.499Z,2.75
2023-02-06T20:07:43.181Z,3.40
2023-02-06T20:11:44.898Z,2.50
2023-02-06T20:15:46.549Z,2.58
2023-02-06T20:19:48.140Z,2.63
2023-02-06T20:23:50.036Z,2.80
2023-02-06T20:27:53.826Z,3.10
2023-02-06T20:31:58.683Z,3.80
2023-02-06T20:36:05.323Z,3.60
2023-02-06T20:40:07.162Z,3.67
2023-02-06T20:44:11.622Z,4.03
2023-02-06T20:48:13.198Z,12.27
2023-02-06T20:52:14.890Z,7.80
2023-02-06T20:56:17.225Z,8.50
2023-02-06T21:00:18.965Z,12.77
2023-02-06T21:04:20.670Z,7.60
2023-02-06T21:08:22.673Z,7.57
2023-02-06T21:12:24.233Z,9.93
2023-02-06T21:16:31.050Z,32.13
2023-02-06T21:20:32.661Z,25.63
2023-02-06T21:24:34.241Z,15.10
2023-02-06T21:28:37.121Z,8.35
2023-02-06T21:32:38.748Z,5.10
2023-02-06T21:36:41.153Z,6.40
2023-02-06T21:40:42.949Z,4.97
2023-02-06T21:44:44.533Z,3.60
2023-02-06T21:48:51.161Z,2.97
2023-02-06T21:52:52.749Z,3.00
2023-02-06T21:56:54.403Z,3.90
2023-02-06T22:00:56.652Z,2.90
2023-02-06T22:04:59.737Z,3.42
2023-02-06T22:09:07.447Z,4.47
2023-02-06T22:13:09.260Z,5.32
2023-02-06T22:17:10.854Z,6.88
2023-02-06T22:21:15.201Z,6.18
2023-02-06T22:25:16.988Z,7.63
2023-02-06T22:29:18.738Z,8.43
2023-02-06T22:33:20.299Z,6.85
2023-02-06T22:37:22.170Z,7.93
2023-02-06T22:41:24.070Z,3.22
2023-02-06T22:45:25.684Z,3.47
2023-02-06T22:49:27.341Z,3.53
2023-02-06T22:53:35.097Z,2.50
2023-02-06T22:57:37.285Z,2.53
2023-02-06T23:01:42.054Z,2.42
2023-02-06T23:05:43.655Z,2.80
2023-02-06T23:09:45.220Z,2.72
2023-02-06T23:13:46.751Z,2.70
2023-02-06T23:17:49.651Z,2.60
2023-02-06T23:21:51.685Z,2.92
2023-02-06T23:25:53.640Z,2.13
2023-02-06T23:29:55.168Z,3.00
2023-02-06T23:33:56.731Z,2.58
2023-02-06T23:37:58.276Z,3.33
2023-02-06T23:41:59.824Z,3.50
2023-02-06T23:46:01.660Z,3.17
2023-02-06T23:50:04.780Z,6.18
2023-02-06T23:54:07.593Z,4.80
